sensor_id;sensor_type;location;lat;lon;timestamp;P1;durP1;ratioP1;P2;durP2;ratioP2
60973;SDS011;46846;51.528;5.076;2022-09-09T00:01:23;606.13;;;577.20;;
60973;SDS011;46846;51.528;5.076;2022-09-09T00:06:56;607.37;;;578.50;;
60973;SDS011;46846;51.528;5.076;2022-09-09T00:09:29;585.55;;;557.78;;
60973;SDS011;46846;51.528;5.076;2022-09-09T00:12:00;602.20;;;573.63;;
60973;SDS011;46846;51.528;5.076;2022-09-09T00:14:42;595.75;;;567.38;;
60973;SDS011;46846;51.528;5.076;2022-09-09T00:17:38;587.95;;;560.00;;
60973;SDS011;46846;51.528;5.076;2022-09-09T00:28:41;592.13;;;563.85;;
60973;SDS011;46846;51.528;5.076;2022-09-09T00:31:19;590.85;;;562.67;;
60973;SDS011;46846;51.528;5.076;2022-09-09T00:33:50;594.88;;;566.20;;
60973;SDS011;46846;51.528;5.076;2022-09-09T00:36:18;583.67;;;555.97;;
60973;SDS011;46846;51.528;5.076;2022-09-09T00:38:57;584.13;;;556.42;;
60973;SDS011;46846;51.528;5.076;2022-09-09T00:58:09;585.38;;;557.45;;
60973;SDS011;46846;51.528;5.076;2022-09-09T01:00:39;594.95;;;566.75;;
60973;SDS011;46846;51.528;5.076;2022-09-09T01:08:42;574.63;;;547.33;;
60973;SDS011;46846;51.528;5.076;2022-09-09T01:14:00;581.45;;;553.80;;
60973;SDS011;46846;51.528;5.076;2022-09-09T01:16:35;576.92;;;549.47;;
60973;SDS011;46846;51.528;5.076;2022-09-09T01:19:01;604.05;;;575.40;;
60973;SDS011;46846;51.528;5.076;2022-09-09T01:26:43;571.03;;;543.75;;
60973;SDS011;46846;51.528;5.076;2022-09-09T01:29:12;566.67;;;539.63;;
60973;SDS011;46846;51.528;5.076;2022-09-09T01:31:40;584.60;;;556.85;;
60973;SDS011;46846;51.528;5.076;2022-09-09T01:34:12;572.72;;;545.55;;
60973;SDS011;46846;51.528;5.076;2022-09-09T01:39:11;560.03;;;533.50;;
60973;SDS011;46846;51.528;5.076;2022-09-09T01:41:37;559.67;;;532.67;;
60973;SDS011;46846;51.528;5.076;2022-09-09T01:44:03;569.63;;;542.47;;
60973;SDS011;46846;51.528;5.076;2022-09-09T01:46:30;584.55;;;556.53;;
60973;SDS011;46846;51.528;5.076;2022-09-09T01:48:56;565.17;;;538.20;;
60973;SDS011;46846;51.528;5.076;2022-09-09T01:51:23;591.55;;;563.30;;
60973;SDS011;46846;51.528;5.076;2022-09-09T01:53:49;589.42;;;561.35;;
60973;SDS011;46846;51.528;5.076;2022-09-09T02:04:36;579.38;;;551.90;;
60973;SDS011;46846;51.528;5.076;2022-09-09T02:07:05;582.58;;;554.88;;
60973;SDS011;46846;51.528;5.076;2022-09-09T02:09:41;582.78;;;554.83;;
60973;SDS011;46846;51.528;5.076;2022-09-09T02:12:13;591.30;;;563.17;;
60973;SDS011;46846;51.528;5.076;2022-09-09T02:14:46;584.33;;;556.63;;
60973;SDS011;46846;51.528;5.076;2022-09-09T02:17:18;594.67;;;566.47;;
60973;SDS011;46846;51.528;5.076;2022-09-09T02:19:52;565.72;;;538.95;;
60973;SDS011;46846;51.528;5.076;2022-09-09T02:22:22;586.08;;;557.90;;
60973;SDS011;46846;51.528;5.076;2022-09-09T02:24:51;588.40;;;560.45;;
60973;SDS011;46846;51.528;5.076;2022-09-09T02:27:20;566.40;;;538.85;;
60973;SDS011;46846;51.528;5.076;2022-09-09T02:29:47;579.33;;;551.50;;
60973;SDS011;46846;51.528;5.076;2022-09-09T02:32:16;587.20;;;559.20;;
60973;SDS011;46846;51.528;5.076;2022-09-09T02:34:48;580.47;;;552.53;;
60973;SDS011;46846;51.528;5.076;2022-09-09T02:37:17;589.17;;;561.22;;
60973;SDS011;46846;51.528;5.076;2022-09-09T02:39:46;587.25;;;559.15;;
60973;SDS011;46846;51.528;5.076;2022-09-09T02:42:12;551.10;;;524.85;;
60973;SDS011;46846;51.528;5.076;2022-09-09T02:44:39;570.17;;;543.08;;
60973;SDS011;46846;51.528;5.076;2022-09-09T02:55:23;570.55;;;543.38;;
60973;SDS011;46846;51.528;5.076;2022-09-09T02:58:04;579.45;;;551.55;;
60973;SDS011;46846;51.528;5.076;2022-09-09T03:00:33;570.88;;;543.65;;
60973;SDS011;46846;51.528;5.076;2022-09-09T03:03:01;579.72;;;552.22;;
60973;SDS011;46846;51.528;5.076;2022-09-09T03:05:30;587.67;;;559.70;;
60973;SDS011;46846;51.528;5.076;2022-09-09T03:07:56;580.63;;;552.97;;
60973;SDS011;46846;51.528;5.076;2022-09-09T03:10:22;587.40;;;559.47;;
60973;SDS011;46846;51.528;5.076;2022-09-09T03:12:48;556.58;;;530.10;;
60973;SDS011;46846;51.528;5.076;2022-09-09T03:15:13;576.50;;;549.00;;
60973;SDS011;46846;51.528;5.076;2022-09-09T03:17:39;568.22;;;541.30;;
60973;SDS011;46846;51.528;5.076;2022-09-09T03:20:06;570.88;;;543.83;;
60973;SDS011;46846;51.528;5.076;2022-09-09T03:22:32;561.00;;;534.25;;
60973;SDS011;46846;51.528;5.076;2022-09-09T03:24:58;565.78;;;538.88;;
60973;SDS011;46846;51.528;5.076;2022-09-09T03:27:23;565.28;;;538.50;;
60973;SDS011;46846;51.528;5.076;2022-09-09T03:29:48;572.30;;;545.15;;
60973;SDS011;46846;51.528;5.076;2022-09-09T03:32:16;565.00;;;538.30;;
60973;SDS011;46846;51.528;5.076;2022-09-09T03:34:42;572.38;;;545.17;;
60973;SDS011;46846;51.528;5.076;2022-09-09T03:37:08;571.90;;;544.80;;
60973;SDS011;46846;51.528;5.076;2022-09-09T03:39:33;568.35;;;541.15;;
60973;SDS011;46846;51.528;5.076;2022-09-09T03:41:59;557.00;;;530.55;;
60973;SDS011;46846;51.528;5.076;2022-09-09T03:44:24;550.90;;;524.80;;
60973;SDS011;46846;51.528;5.076;2022-09-09T03:46:49;585.30;;;557.53;;
60973;SDS011;46846;51.528;5.076;2022-09-09T03:49:15;570.80;;;543.70;;
60973;SDS011;46846;51.528;5.076;2022-09-09T03:51:40;572.72;;;545.22;;
60973;SDS011;46846;51.528;5.076;2022-09-09T03:54:06;578.25;;;550.40;;
60973;SDS011;46846;51.528;5.076;2022-09-09T03:56:35;574.08;;;546.25;;
60973;SDS011;46846;51.528;5.076;2022-09-09T03:59:00;583.13;;;555.45;;
60973;SDS011;46846;51.528;5.076;2022-09-09T04:01:26;583.30;;;555.53;;
60973;SDS011;46846;51.528;5.076;2022-09-09T04:03:52;579.97;;;552.40;;
60973;SDS011;46846;51.528;5.076;2022-09-09T04:06:17;569.13;;;542.03;;
60973;SDS011;46846;51.528;5.076;2022-09-09T04:08:43;576.15;;;548.28;;
60973;SDS011;46846;51.528;5.076;2022-09-09T04:11:10;558.70;;;531.92;;
60973;SDS011;46846;51.528;5.076;2022-09-09T04:13:36;580.00;;;552.13;;
60973;SDS011;46846;51.528;5.076;2022-09-09T04:16:05;540.20;;;514.50;;
60973;SDS011;46846;51.528;5.076;2022-09-09T04:18:31;580.33;;;552.60;;
60973;SDS011;46846;51.528;5.076;2022-09-09T04:20:57;552.05;;;525.10;;
60973;SDS011;46846;51.528;5.076;2022-09-09T04:23:23;570.38;;;543.15;;
60973;SDS011;46846;51.528;5.076;2022-09-09T04:25:51;545.05;;;518.83;;
60973;SDS011;46846;51.528;5.076;2022-09-09T04:28:19;552.30;;;525.15;;
60973;SDS011;46846;51.528;5.076;2022-09-09T04:30:46;575.38;;;547.92;;
60973;SDS011;46846;51.528;5.076;2022-09-09T04:33:12;571.10;;;543.97;;
60973;SDS011;46846;51.528;5.076;2022-09-09T04:35:39;548.05;;;521.97;;
60973;SDS011;46846;51.528;5.076;2022-09-09T04:38:08;571.25;;;544.20;;
60973;SDS011;46846;51.528;5.076;2022-09-09T04:40:34;557.08;;;530.15;;
60973;SDS011;46846;51.528;5.076;2022-09-09T04:43:00;560.20;;;533.58;;
60973;SDS011;46846;51.528;5.076;2022-09-09T04:45:29;561.92;;;535.22;;
60973;SDS011;46846;51.528;5.076;2022-09-09T04:47:55;554.08;;;527.53;;
60973;SDS011;46846;51.528;5.076;2022-09-09T04:50:21;571.05;;;543.95;;
60973;SDS011;46846;51.528;5.076;2022-09-09T04:52:46;562.92;;;536.22;;
60973;SDS011;46846;51.528;5.076;2022-09-09T04:55:12;551.80;;;525.53;;
60973;SDS011;46846;51.528;5.076;2022-09-09T04:57:38;549.67;;;523.53;;
60973;SDS011;46846;51.528;5.076;2022-09-09T05:00:04;553.05;;;526.40;;
60973;SDS011;46846;51.528;5.076;2022-09-09T05:02:30;541.78;;;516.08;;
60973;SDS011;46846;51.528;5.076;2022-09-09T05:04:57;555.05;;;528.67;;
60973;SDS011;46846;51.528;5.076;2022-09-09T05:07:23;553.92;;;527.53;;
60973;SDS011;46846;51.528;5.076;2022-09-09T05:09:48;542.70;;;516.15;;
60973;SDS011;46846;51.528;5.076;2022-09-09T05:12:14;563.70;;;536.92;;
60973;SDS011;46846;51.528;5.076;2022-09-09T05:14:43;567.85;;;540.50;;
60973;SDS011;46846;51.528;5.076;2022-09-09T05:17:09;568.40;;;541.20;;
60973;SDS011;46846;51.528;5.076;2022-09-09T05:19:35;562.67;;;535.97;;
60973;SDS011;46846;51.528;5.076;2022-09-09T05:22:01;564.13;;;537.17;;
60973;SDS011;46846;51.528;5.076;2022-09-09T05:24:27;562.47;;;535.60;;
60973;SDS011;46846;51.528;5.076;2022-09-09T05:26:52;550.78;;;524.38;;
60973;SDS011;46846;51.528;5.076;2022-09-09T05:29:17;555.30;;;527.67;;
60973;SDS011;46846;51.528;5.076;2022-09-09T05:31:44;556.50;;;529.80;;
60973;SDS011;46846;51.528;5.076;2022-09-09T05:34:10;572.40;;;545.13;;
60973;SDS011;46846;51.528;5.076;2022-09-09T05:36:36;551.38;;;525.03;;
60973;SDS011;46846;51.528;5.076;2022-09-09T05:39:01;582.88;;;554.95;;
60973;SDS011;46846;51.528;5.076;2022-09-09T05:41:28;551.33;;;525.03;;
60973;SDS011;46846;51.528;5.076;2022-09-09T05:43:54;554.97;;;528.08;;
60973;SDS011;46846;51.528;5.076;2022-09-09T05:46:20;550.80;;;524.47;;
60973;SDS011;46846;51.528;5.076;2022-09-09T05:48:48;565.15;;;538.35;;
60973;SDS011;46846;51.528;5.076;2022-09-09T05:51:24;549.08;;;522.72;;
60973;SDS011;46846;51.528;5.076;2022-09-09T05:53:51;568.30;;;541.08;;
60973;SDS011;46846;51.528;5.076;2022-09-09T05:56:18;552.13;;;525.85;;
60973;SDS011;46846;51.528;5.076;2022-09-09T05:58:45;548.33;;;521.88;;
60973;SDS011;46846;51.528;5.076;2022-09-09T06:01:18;563.05;;;536.40;;
60973;SDS011;46846;51.528;5.076;2022-09-09T06:03:45;568.13;;;540.88;;
60973;SDS011;46846;51.528;5.076;2022-09-09T06:06:12;557.40;;;530.60;;
60973;SDS011;46846;51.528;5.076;2022-09-09T06:08:52;553.55;;;527.10;;
60973;SDS011;46846;51.528;5.076;2022-09-09T06:11:23;559.40;;;532.63;;
60973;SDS011;46846;51.528;5.076;2022-09-09T06:13:50;548.30;;;522.08;;
60973;SDS011;46846;51.528;5.076;2022-09-09T06:16:23;555.53;;;529.22;;
60973;SDS011;46846;51.528;5.076;2022-09-09T06:18:51;548.50;;;521.72;;
60973;SDS011;46846;51.528;5.076;2022-09-09T06:21:19;557.70;;;529.97;;
60973;SDS011;46846;51.528;5.076;2022-09-09T06:23:49;541.25;;;515.55;;
60973;SDS011;46846;51.528;5.076;2022-09-09T06:26:17;554.22;;;527.80;;
60973;SDS011;46846;51.528;5.076;2022-09-09T06:28:47;525.33;;;500.25;;
60973;SDS011;46846;51.528;5.076;2022-09-09T06:31:15;525.88;;;500.02;;
60973;SDS011;46846;51.528;5.076;2022-09-09T06:33:51;555.08;;;528.45;;
60973;SDS011;46846;51.528;5.076;2022-09-09T06:36:19;527.65;;;501.73;;
60973;SDS011;46846;51.528;5.076;2022-09-09T06:38:46;546.22;;;519.50;;
60973;SDS011;46846;51.528;5.076;2022-09-09T06:41:12;541.50;;;515.53;;
60973;SDS011;46846;51.528;5.076;2022-09-09T06:43:39;539.58;;;513.65;;
60973;SDS011;46846;51.528;5.076;2022-09-09T06:46:10;539.35;;;512.13;;
60973;SDS011;46846;51.528;5.076;2022-09-09T06:48:40;547.08;;;520.97;;
60973;SDS011;46846;51.528;5.076;2022-09-09T06:53:36;564.17;;;537.10;;
60973;SDS011;46846;51.528;5.076;2022-09-09T06:56:17;530.88;;;505.42;;
60973;SDS011;46846;51.528;5.076;2022-09-09T06:58:54;551.85;;;525.35;;
60973;SDS011;46846;51.528;5.076;2022-09-09T07:01:24;535.70;;;509.92;;
60973;SDS011;46846;51.528;5.076;2022-09-09T07:03:52;539.03;;;513.33;;
60973;SDS011;46846;51.528;5.076;2022-09-09T07:06:23;546.53;;;520.30;;
60973;SDS011;46846;51.528;5.076;2022-09-09T07:08:57;548.47;;;522.08;;
60973;SDS011;46846;51.528;5.076;2022-09-09T07:11:30;558.38;;;531.58;;
60973;SDS011;46846;51.528;5.076;2022-09-09T07:13:58;555.72;;;528.75;;
60973;SDS011;46846;51.528;5.076;2022-09-09T07:16:24;568.80;;;541.30;;
60973;SDS011;46846;51.528;5.076;2022-09-09T07:18:53;547.90;;;521.38;;
60973;SDS011;46846;51.528;5.076;2022-09-09T07:21:22;545.60;;;518.97;;
60973;SDS011;46846;51.528;5.076;2022-09-09T07:23:49;527.28;;;501.77;;
60973;SDS011;46846;51.528;5.076;2022-09-09T07:26:16;541.83;;;515.80;;
60973;SDS011;46846;51.528;5.076;2022-09-09T07:28:44;542.78;;;516.00;;
60973;SDS011;46846;51.528;5.076;2022-09-09T07:31:17;552.08;;;525.65;;
60973;SDS011;46846;51.528;5.076;2022-09-09T07:33:45;557.30;;;530.57;;
60973;SDS011;46846;51.528;5.076;2022-09-09T07:36:13;555.60;;;528.95;;
60973;SDS011;46846;51.528;5.076;2022-09-09T07:38:43;523.65;;;498.67;;
60973;SDS011;46846;51.528;5.076;2022-09-09T07:41:12;547.60;;;521.13;;
60973;SDS011;46846;51.528;5.076;2022-09-09T07:43:39;524.50;;;499.13;;
60973;SDS011;46846;51.528;5.076;2022-09-09T07:46:10;527.17;;;501.92;;
60973;SDS011;46846;51.528;5.076;2022-09-09T07:48:37;533.47;;;507.65;;
60973;SDS011;46846;51.528;5.076;2022-09-09T07:51:07;561.95;;;535.30;;
60973;SDS011;46846;51.528;5.076;2022-09-09T07:53:35;546.50;;;520.15;;
60973;SDS011;46846;51.528;5.076;2022-09-09T07:56:08;550.75;;;524.15;;
60973;SDS011;46846;51.528;5.076;2022-09-09T07:58:36;548.25;;;521.90;;
60973;SDS011;46846;51.528;5.076;2022-09-09T08:01:09;546.50;;;520.08;;
60973;SDS011;46846;51.528;5.076;2022-09-09T08:03:36;546.28;;;519.92;;
60973;SDS011;46846;51.528;5.076;2022-09-09T08:06:03;536.78;;;510.80;;
60973;SDS011;46846;51.528;5.076;2022-09-09T08:08:29;535.17;;;509.63;;
60973;SDS011;46846;51.528;5.076;2022-09-09T08:11:05;527.33;;;501.70;;
60973;SDS011;46846;51.528;5.076;2022-09-09T08:13:37;538.88;;;513.08;;
60973;SDS011;46846;51.528;5.076;2022-09-09T08:16:07;537.40;;;511.80;;
60973;SDS011;46846;51.528;5.076;2022-09-09T08:18:38;539.60;;;513.40;;
60973;SDS011;46846;51.528;5.076;2022-09-09T08:21:12;553.30;;;526.75;;
60973;SDS011;46846;51.528;5.076;2022-09-09T08:23:40;536.88;;;510.95;;
60973;SDS011;46846;51.528;5.076;2022-09-09T08:26:10;545.53;;;519.40;;
60973;SDS011;46846;51.528;5.076;2022-09-09T08:28:38;535.72;;;510.10;;
60973;SDS011;46846;51.528;5.076;2022-09-09T08:31:09;561.85;;;535.08;;
60973;SDS011;46846;51.528;5.076;2022-09-09T08:33:39;551.80;;;525.13;;
60973;SDS011;46846;51.528;5.076;2022-09-09T08:36:08;557.13;;;530.30;;
60973;SDS011;46846;51.528;5.076;2022-09-09T08:38:35;559.90;;;533.03;;
60973;SDS011;46846;51.528;5.076;2022-09-09T08:43:43;553.65;;;527.25;;
60973;SDS011;46846;51.528;5.076;2022-09-09T08:51:48;535.67;;;510.15;;
60973;SDS011;46846;51.528;5.076;2022-09-09T08:54:14;549.75;;;523.05;;
60973;SDS011;46846;51.528;5.076;2022-09-09T08:56:40;560.40;;;533.20;;
60973;SDS011;46846;51.528;5.076;2022-09-09T08:59:07;563.58;;;536.33;;
60973;SDS011;46846;51.528;5.076;2022-09-09T09:01:41;538.25;;;512.40;;
60973;SDS011;46846;51.528;5.076;2022-09-09T09:04:32;567.58;;;540.15;;
60973;SDS011;46846;51.528;5.076;2022-09-09T09:12:29;559.78;;;532.83;;
60973;SDS011;46846;51.528;5.076;2022-09-09T09:15:00;546.38;;;519.92;;
60973;SDS011;46846;51.528;5.076;2022-09-09T09:17:26;563.90;;;536.35;;
60973;SDS011;46846;51.528;5.076;2022-09-09T09:19:56;542.97;;;517.03;;
60973;SDS011;46846;51.528;5.076;2022-09-09T09:25:11;552.72;;;525.97;;
60973;SDS011;46846;51.528;5.076;2022-09-09T09:30:35;552.15;;;525.40;;
60973;SDS011;46846;51.528;5.076;2022-09-09T09:35:49;550.85;;;524.53;;
60973;SDS011;46846;51.528;5.076;2022-09-09T09:38:16;541.45;;;515.55;;
60973;SDS011;46846;51.528;5.076;2022-09-09T09:40:48;559.35;;;532.53;;
60973;SDS011;46846;51.528;5.076;2022-09-09T09:43:56;534.50;;;508.95;;
60973;SDS011;46846;51.528;5.076;2022-09-09T09:46:19;540.33;;;514.30;;
60973;SDS011;46846;51.528;5.076;2022-09-09T09:49:00;535.75;;;509.98;;
60973;SDS011;46846;51.528;5.076;2022-09-09T09:51:28;564.60;;;536.83;;
60973;SDS011;46846;51.528;5.076;2022-09-09T09:54:41;561.92;;;534.95;;
60973;SDS011;46846;51.528;5.076;2022-09-09T09:56:52;530.95;;;505.20;;
60973;SDS011;46846;51.528;5.076;2022-09-09T10:01:52;544.90;;;518.95;;
60973;SDS011;46846;51.528;5.076;2022-09-09T10:04:18;544.00;;;517.85;;
60973;SDS011;46846;51.528;5.076;2022-09-09T10:06:48;566.90;;;539.40;;
60973;SDS011;46846;51.528;5.076;2022-09-09T10:20:16;548.20;;;521.45;;
60973;SDS011;46846;51.528;5.076;2022-09-09T10:22:52;547.33;;;520.95;;
60973;SDS011;46846;51.528;5.076;2022-09-09T10:31:16;567.35;;;540.28;;
60973;SDS011;46846;51.528;5.076;2022-09-09T10:36:29;544.03;;;517.70;;
60973;SDS011;46846;51.528;5.076;2022-09-09T10:39:37;529.63;;;504.05;;
60973;SDS011;46846;51.528;5.076;2022-09-09T10:47:34;567.50;;;540.42;;
60973;SDS011;46846;51.528;5.076;2022-09-09T10:55:40;574.78;;;547.22;;
60973;SDS011;46846;51.528;5.076;2022-09-09T10:58:10;562.92;;;535.97;;
60973;SDS011;46846;51.528;5.076;2022-09-09T11:00:43;552.28;;;525.90;;
60973;SDS011;46846;51.528;5.076;2022-09-09T11:03:19;575.13;;;547.55;;
60973;SDS011;46846;51.528;5.076;2022-09-09T11:06:06;566.05;;;538.67;;
60973;SDS011;46846;51.528;5.076;2022-09-09T11:08:38;552.00;;;525.33;;
60973;SDS011;46846;51.528;5.076;2022-09-09T11:19:04;545.97;;;520.03;;
60973;SDS011;46846;51.528;5.076;2022-09-09T11:21:41;553.30;;;526.92;;
60973;SDS011;46846;51.528;5.076;2022-09-09T11:24:16;559.47;;;532.67;;
60973;SDS011;46846;51.528;5.076;2022-09-09T11:27:06;550.55;;;524.28;;
60973;SDS011;46846;51.528;5.076;2022-09-09T11:32:51;557.92;;;531.13;;
60973;SDS011;46846;51.528;5.076;2022-09-09T11:35:45;555.60;;;529.20;;
60973;SDS011;46846;51.528;5.076;2022-09-09T11:40:55;565.17;;;538.28;;
60973;SDS011;46846;51.528;5.076;2022-09-09T11:43:25;574.80;;;547.38;;
60973;SDS011;46846;51.528;5.076;2022-09-09T11:45:55;570.00;;;542.55;;
60973;SDS011;46846;51.528;5.076;2022-09-09T11:51:05;566.63;;;539.63;;
60973;SDS011;46846;51.528;5.076;2022-09-09T11:53:33;565.88;;;538.67;;
60973;SDS011;46846;51.528;5.076;2022-09-09T11:56:05;555.63;;;528.90;;
60973;SDS011;46846;51.528;5.076;2022-09-09T11:58:38;575.85;;;548.25;;
60973;SDS011;46846;51.528;5.076;2022-09-09T12:04:01;575.53;;;547.90;;
60973;SDS011;46846;51.528;5.076;2022-09-09T12:06:41;550.05;;;523.67;;
60973;SDS011;46846;51.528;5.076;2022-09-09T12:12:04;559.13;;;532.63;;
60973;SDS011;46846;51.528;5.076;2022-09-09T12:14:57;571.75;;;544.35;;
60973;SDS011;46846;51.528;5.076;2022-09-09T12:17:26;581.88;;;554.17;;
60973;SDS011;46846;51.528;5.076;2022-09-09T12:22:37;571.72;;;544.08;;
60973;SDS011;46846;51.528;5.076;2022-09-09T12:28:04;550.95;;;524.65;;
60973;SDS011;46846;51.528;5.076;2022-09-09T12:31:03;573.65;;;546.17;;
60973;SDS011;46846;51.528;5.076;2022-09-09T12:33:37;564.55;;;537.38;;
60973;SDS011;46846;51.528;5.076;2022-09-09T12:36:11;554.35;;;527.35;;
60973;SDS011;46846;51.528;5.076;2022-09-09T12:38:41;567.53;;;540.10;;
60973;SDS011;46846;51.528;5.076;2022-09-09T12:41:29;571.58;;;544.15;;
60973;SDS011;46846;51.528;5.076;2022-09-09T12:44:06;569.47;;;542.22;;
60973;SDS011;46846;51.528;5.076;2022-09-09T12:46:41;585.45;;;557.53;;
60973;SDS011;46846;51.528;5.076;2022-09-09T12:52:11;564.38;;;537.15;;
60973;SDS011;46846;51.528;5.076;2022-09-09T12:54:43;570.30;;;543.08;;
60973;SDS011;46846;51.528;5.076;2022-09-09T12:57:11;583.95;;;555.72;;
60973;SDS011;46846;51.528;5.076;2022-09-09T12:59:39;582.17;;;554.17;;
60973;SDS011;46846;51.528;5.076;2022-09-09T13:02:20;582.65;;;554.58;;
60973;SDS011;46846;51.528;5.076;2022-09-09T13:04:48;594.95;;;566.45;;
60973;SDS011;46846;51.528;5.076;2022-09-09T13:07:15;586.25;;;558.00;;
60973;SDS011;46846;51.528;5.076;2022-09-09T13:09:41;578.30;;;550.38;;
60973;SDS011;46846;51.528;5.076;2022-09-09T13:12:18;579.95;;;552.28;;
60973;SDS011;46846;51.528;5.076;2022-09-09T13:14:52;580.38;;;552.42;;
60973;SDS011;46846;51.528;5.076;2022-09-09T13:17:22;568.90;;;541.85;;
60973;SDS011;46846;51.528;5.076;2022-09-09T13:19:53;585.92;;;557.88;;
60973;SDS011;46846;51.528;5.076;2022-09-09T13:22:41;574.30;;;546.50;;
60973;SDS011;46846;51.528;5.076;2022-09-09T13:27:37;587.95;;;559.90;;
60973;SDS011;46846;51.528;5.076;2022-09-09T13:33:02;580.67;;;553.05;;
60973;SDS011;46846;51.528;5.076;2022-09-09T13:35:30;588.15;;;559.95;;
60973;SDS011;46846;51.528;5.076;2022-09-09T13:37:56;585.38;;;557.28;;
60973;SDS011;46846;51.528;5.076;2022-09-09T13:40:23;594.03;;;565.22;;
60973;SDS011;46846;51.528;5.076;2022-09-09T13:42:54;587.25;;;559.00;;
60973;SDS011;46846;51.528;5.076;2022-09-09T13:45:22;597.88;;;568.40;;
60973;SDS011;46846;51.528;5.076;2022-09-09T13:47:51;584.00;;;556.05;;
60973;SDS011;46846;51.528;5.076;2022-09-09T13:50:27;576.45;;;548.70;;
60973;SDS011;46846;51.528;5.076;2022-09-09T13:52:57;594.78;;;566.28;;
60973;SDS011;46846;51.528;5.076;2022-09-09T13:55:24;613.47;;;584.30;;
60973;SDS011;46846;51.528;5.076;2022-09-09T14:00:18;600.97;;;571.88;;
60973;SDS011;46846;51.528;5.076;2022-09-09T14:02:43;602.72;;;574.00;;
60973;SDS011;46846;51.528;5.076;2022-09-09T14:05:09;586.50;;;558.40;;
60973;SDS011;46846;51.528;5.076;2022-09-09T14:07:36;588.15;;;560.17;;
60973;SDS011;46846;51.528;5.076;2022-09-09T14:10:03;576.58;;;549.17;;
60973;SDS011;46846;51.528;5.076;2022-09-09T14:12:29;595.08;;;566.70;;
60973;SDS011;46846;51.528;5.076;2022-09-09T14:14:55;592.65;;;564.05;;
60973;SDS011;46846;51.528;5.076;2022-09-09T14:17:20;582.95;;;554.80;;
60973;SDS011;46846;51.528;5.076;2022-09-09T14:19:47;596.22;;;567.42;;
60973;SDS011;46846;51.528;5.076;2022-09-09T14:22:12;580.22;;;552.60;;
60973;SDS011;46846;51.528;5.076;2022-09-09T14:24:38;593.22;;;564.88;;
60973;SDS011;46846;51.528;5.076;2022-09-09T14:27:03;589.88;;;561.63;;
60973;SDS011;46846;51.528;5.076;2022-09-09T14:29:28;593.47;;;565.15;;
60973;SDS011;46846;51.528;5.076;2022-09-09T14:31:54;579.72;;;551.92;;
60973;SDS011;46846;51.528;5.076;2022-09-09T14:34:19;582.50;;;554.40;;
60973;SDS011;46846;51.528;5.076;2022-09-09T14:36:45;583.83;;;555.67;;
60973;SDS011;46846;51.528;5.076;2022-09-09T14:39:10;596.28;;;567.80;;
60973;SDS011;46846;51.528;5.076;2022-09-09T14:41:36;587.28;;;558.67;;
60973;SDS011;46846;51.528;5.076;2022-09-09T14:44:01;597.72;;;568.88;;
60973;SDS011;46846;51.528;5.076;2022-09-09T14:46:27;587.70;;;559.70;;
60973;SDS011;46846;51.528;5.076;2022-09-09T14:48:52;584.97;;;555.95;;
60973;SDS011;46846;51.528;5.076;2022-09-09T14:51:19;586.92;;;558.92;;
60973;SDS011;46846;51.528;5.076;2022-09-09T14:53:53;591.65;;;563.40;;
60973;SDS011;46846;51.528;5.076;2022-09-09T14:56:23;609.80;;;580.65;;
60973;SDS011;46846;51.528;5.076;2022-09-09T14:58:54;594.83;;;566.13;;
60973;SDS011;46846;51.528;5.076;2022-09-09T15:01:21;608.33;;;579.25;;
60973;SDS011;46846;51.528;5.076;2022-09-09T15:03:51;602.95;;;574.15;;
60973;SDS011;46846;51.528;5.076;2022-09-09T15:06:18;603.97;;;574.90;;
60973;SDS011;46846;51.528;5.076;2022-09-09T15:08:45;604.40;;;575.10;;
60973;SDS011;46846;51.528;5.076;2022-09-09T15:11:12;610.72;;;581.63;;
60973;SDS011;46846;51.528;5.076;2022-09-09T15:13:39;590.97;;;562.55;;
60973;SDS011;46846;51.528;5.076;2022-09-09T15:16:06;583.97;;;556.05;;
60973;SDS011;46846;51.528;5.076;2022-09-09T15:18:33;611.33;;;582.00;;
60973;SDS011;46846;51.528;5.076;2022-09-09T15:21:01;595.35;;;566.78;;
60973;SDS011;46846;51.528;5.076;2022-09-09T15:23:33;595.65;;;567.15;;
60973;SDS011;46846;51.528;5.076;2022-09-09T15:25:59;614.28;;;584.92;;
60973;SDS011;46846;51.528;5.076;2022-09-09T15:28:24;610.67;;;581.30;;
60973;SDS011;46846;51.528;5.076;2022-09-09T15:30:50;607.25;;;578.10;;
60973;SDS011;46846;51.528;5.076;2022-09-09T15:33:17;605.88;;;576.88;;
60973;SDS011;46846;51.528;5.076;2022-09-09T15:35:44;615.10;;;585.80;;
60973;SDS011;46846;51.528;5.076;2022-09-09T15:38:10;598.30;;;569.80;;
60973;SDS011;46846;51.528;5.076;2022-09-09T15:40:38;608.25;;;578.85;;
60973;SDS011;46846;51.528;5.076;2022-09-09T15:43:06;588.88;;;560.63;;
60973;SDS011;46846;51.528;5.076;2022-09-09T15:45:32;597.22;;;568.60;;
60973;SDS011;46846;51.528;5.076;2022-09-09T15:47:59;597.85;;;569.15;;
60973;SDS011;46846;51.528;5.076;2022-09-09T15:50:25;608.47;;;579.25;;
60973;SDS011;46846;51.528;5.076;2022-09-09T15:52:51;590.88;;;562.60;;
60973;SDS011;46846;51.528;5.076;2022-09-09T15:55:17;597.17;;;568.58;;
60973;SDS011;46846;51.528;5.076;2022-09-09T15:57:44;588.40;;;560.05;;
60973;SDS011;46846;51.528;5.076;2022-09-09T16:00:09;574.63;;;547.15;;
60973;SDS011;46846;51.528;5.076;2022-09-09T16:02:38;591.50;;;563.30;;
60973;SDS011;46846;51.528;5.076;2022-09-09T16:05:03;593.33;;;564.70;;
60973;SDS011;46846;51.528;5.076;2022-09-09T16:07:29;590.83;;;562.47;;
60973;SDS011;46846;51.528;5.076;2022-09-09T16:09:55;589.25;;;561.13;;
60973;SDS011;46846;51.528;5.076;2022-09-09T16:12:20;589.75;;;561.50;;
60973;SDS011;46846;51.528;5.076;2022-09-09T16:14:46;594.47;;;566.03;;
60973;SDS011;46846;51.528;5.076;2022-09-09T16:17:11;583.92;;;555.97;;
60973;SDS011;46846;51.528;5.076;2022-09-09T16:19:37;589.35;;;561.03;;
60973;SDS011;46846;51.528;5.076;2022-09-09T16:22:03;609.63;;;580.65;;
60973;SDS011;46846;51.528;5.076;2022-09-09T16:24:29;588.33;;;559.90;;
60973;SDS011;46846;51.528;5.076;2022-09-09T16:26:55;606.42;;;577.45;;
60973;SDS011;46846;51.528;5.076;2022-09-09T16:29:21;603.72;;;574.75;;
60973;SDS011;46846;51.528;5.076;2022-09-09T16:31:48;589.15;;;560.90;;
60973;SDS011;46846;51.528;5.076;2022-09-09T16:34:15;579.35;;;551.80;;
60973;SDS011;46846;51.528;5.076;2022-09-09T16:36:42;599.42;;;570.65;;
60973;SDS011;46846;51.528;5.076;2022-09-09T16:39:10;599.50;;;570.50;;
60973;SDS011;46846;51.528;5.076;2022-09-09T16:41:37;603.95;;;574.90;;
60973;SDS011;46846;51.528;5.076;2022-09-09T16:44:05;583.38;;;555.42;;
60973;SDS011;46846;51.528;5.076;2022-09-09T16:46:32;592.63;;;564.42;;